createdAt,value
2019-04-20T00:00:39.728Z,8.90
2019-04-20T00:03:05.713Z,8.90
2019-04-20T00:05:35.019Z,8.90
2019-04-20T00:10:44.726Z,8.80
2019-04-20T00:13:16.673Z,8.70
2019-04-20T00:15:34.589Z,8.70
2019-04-20T00:18:05.389Z,8.70
2019-04-20T00:20:35.886Z,8.60
2019-04-20T00:23:05.943Z,8.50
2019-04-20T00:26:02.624Z,8.40
2019-04-20T00:28:40.466Z,8.50
2019-04-20T00:31:11.139Z,8.40
2019-04-20T00:33:38.874Z,8.40
2019-04-20T00:35:52.900Z,8.30
2019-04-20T00:38:22.896Z,8.20
2019-04-20T00:40:58.493Z,8.20
2019-04-20T00:43:27.931Z,8.20
2019-04-20T00:46:01.141Z,8.10
2019-04-20T00:48:33.731Z,8.10
2019-04-20T00:51:06.924Z,8.00
2019-04-20T00:53:46.778Z,8.00
2019-04-20T00:56:11.972Z,7.90
2019-04-20T00:58:52.293Z,7.90
2019-04-20T01:04:02.234Z,8.10
2019-04-20T01:06:46.651Z,8.00
2019-04-20T01:09:05.856Z,7.90
2019-04-20T01:11:39.955Z,7.90
2019-04-20T01:14:09.566Z,7.90
2019-04-20T01:16:41.752Z,7.90
2019-04-20T01:19:05.032Z,7.80
2019-04-20T01:21:35.049Z,7.80
2019-04-20T01:24:07.930Z,7.80
2019-04-20T01:26:35.644Z,7.60
2019-04-20T01:31:45.196Z,7.50
2019-04-20T01:34:19.585Z,7.50
2019-04-20T01:36:51.766Z,7.40
2019-04-20T01:39:19.775Z,7.40
2019-04-20T01:41:37.162Z,7.40
2019-04-20T01:44:07.051Z,7.30
2019-04-20T01:46:41.174Z,7.30
2019-04-20T01:49:11.446Z,7.30
2019-04-20T01:51:47.221Z,7.30
2019-04-20T01:54:22.978Z,7.30
2019-04-20T01:56:52.250Z,7.20
2019-04-20T01:59:27.483Z,7.10
2019-04-20T02:02:04.631Z,7.00
2019-04-20T02:04:34.661Z,6.90
2019-04-20T02:07:02.073Z,6.90
2019-04-20T02:09:32.569Z,6.90
2019-04-20T02:12:06.980Z,6.90
2019-04-20T02:14:40.522Z,6.80
2019-04-20T02:17:09.538Z,6.80
2019-04-20T02:19:56.483Z,6.70
2019-04-20T02:22:13.598Z,6.70
2019-04-20T02:27:01.914Z,6.70
2019-04-20T02:29:50.447Z,6.70
2019-04-20T02:32:47.663Z,6.60
2019-04-20T02:37:56.788Z,6.40
2019-04-20T02:42:57.466Z,6.40
2019-04-20T02:45:28.260Z,6.50
2019-04-20T02:48:02.830Z,6.60
2019-04-20T02:55:26.758Z,6.30
2019-04-20T02:57:55.305Z,6.20
2019-04-20T03:00:12.743Z,6.30
2019-04-20T03:02:31.355Z,6.40
2019-04-20T03:04:59.947Z,6.30
2019-04-20T03:10:06.442Z,6.30
2019-04-20T03:12:38.857Z,6.30
2019-04-20T03:15:00.814Z,6.10
2019-04-20T03:19:58.461Z,6.10
2019-04-20T03:22:51.247Z,6.00
2019-04-20T03:25:15.654Z,5.90
2019-04-20T03:28:01.280Z,5.80
2019-04-20T03:33:24.436Z,5.60
2019-04-20T03:35:43.462Z,5.60
2019-04-20T03:38:11.265Z,5.60
2019-04-20T03:40:36.532Z,5.50
2019-04-20T03:42:50.686Z,5.50
2019-04-20T03:45:22.984Z,5.40
2019-04-20T03:48:03.072Z,5.40
2019-04-20T03:50:41.169Z,5.40
2019-04-20T03:53:20.339Z,5.60
2019-04-20T03:55:47.471Z,5.60
2019-04-20T03:58:19.782Z,5.60
2019-04-20T04:01:27.456Z,5.40
2019-04-20T04:04:05.154Z,5.30
2019-04-20T04:06:22.775Z,5.40
2019-04-20T04:11:26.180Z,5.40
2019-04-20T04:13:41.937Z,5.30
2019-04-20T04:16:13.841Z,5.40
2019-04-20T04:21:18.304Z,5.10
2019-04-20T04:28:55.974Z,5.20
2019-04-20T04:31:33.211Z,5.30
2019-04-20T04:33:58.166Z,5.30
2019-04-20T04:36:28.992Z,5.20
2019-04-20T04:39:11.432Z,5.20
2019-04-20T04:41:31.139Z,5.20
2019-04-20T04:44:00.396Z,5.20
2019-04-20T04:46:12.422Z,5.20
2019-04-20T04:48:45.579Z,5.30
2019-04-20T04:51:19.589Z,5.20
2019-04-20T04:53:51.137Z,5.20
2019-04-20T04:56:16.199Z,5.30
2019-04-20T05:01:20.067Z,5.30
2019-04-20T05:04:05.373Z,5.40
2019-04-20T05:06:26.540Z,5.40
2019-04-20T05:08:49.925Z,5.50
2019-04-20T05:11:13.332Z,5.70
2019-04-20T05:13:48.896Z,5.80
2019-04-20T05:16:33.492Z,5.90
2019-04-20T05:19:04.166Z,5.90
2019-04-20T05:21:49.619Z,6.00
2019-04-20T05:24:34.417Z,6.00
2019-04-20T05:27:15.977Z,6.20
2019-04-20T05:29:25.384Z,6.20
2019-04-20T05:31:57.177Z,6.30
2019-04-20T05:34:44.842Z,6.30
2019-04-20T05:39:38.280Z,6.50
2019-04-20T05:42:09.295Z,6.70
2019-04-20T05:44:41.356Z,6.90
2019-04-20T05:47:13.650Z,7.10
2019-04-20T05:49:40.288Z,7.30
2019-04-20T05:52:25.407Z,7.40
2019-04-20T05:54:47.565Z,7.60
2019-04-20T05:57:21.342Z,7.70
2019-04-20T05:59:51.361Z,8.00
2019-04-20T06:02:20.030Z,8.10
2019-04-20T06:05:00.009Z,8.30
2019-04-20T06:07:15.284Z,8.60
2019-04-20T06:09:47.970Z,8.90
2019-04-20T06:12:33.171Z,9.50
2019-04-20T06:14:52.034Z,10.20
2019-04-20T06:17:34.533Z,11.00
2019-04-20T06:20:06.097Z,11.80
2019-04-20T06:22:42.301Z,12.50
2019-04-20T06:25:21.943Z,13.10
2019-04-20T06:27:41.092Z,13.60
2019-04-20T06:30:06.881Z,13.90
2019-04-20T06:33:11.496Z,14.50
2019-04-20T06:35:53.613Z,15.00
2019-04-20T06:38:22.863Z,15.50
2019-04-20T06:43:09.068Z,16.00
2019-04-20T06:45:39.821Z,16.20
2019-04-20T06:48:06.877Z,16.10
2019-04-20T06:50:28.823Z,16.00
2019-04-20T06:53:17.262Z,16.20
2019-04-20T06:55:54.733Z,16.50
2019-04-20T06:58:27.425Z,16.80
2019-04-20T07:03:17.803Z,17.30
2019-04-20T07:08:36.025Z,17.30
2019-04-20T07:10:54.450Z,16.90
2019-04-20T07:13:06.843Z,16.90
2019-04-20T07:15:42.778Z,17.00
2019-04-20T07:20:56.718Z,17.20
2019-04-20T07:23:43.703Z,17.70
2019-04-20T07:26:17.951Z,18.00
2019-04-20T07:28:48.536Z,18.40
2019-04-20T07:31:11.445Z,18.20
2019-04-20T07:33:44.624Z,18.30
2019-04-20T07:36:18.310Z,18.60
2019-04-20T07:39:00.676Z,18.40
2019-04-20T07:41:17.547Z,18.30
2019-04-20T07:43:54.119Z,18.30
2019-04-20T07:46:20.795Z,18.60
2019-04-20T07:48:43.005Z,18.80
2019-04-20T07:53:36.649Z,20.00
2019-04-20T07:56:11.492Z,20.80
2019-04-20T07:58:30.483Z,21.50
2019-04-20T08:01:22.525Z,21.30
2019-04-20T08:03:55.803Z,21.20
2019-04-20T08:06:30.264Z,20.60
2019-04-20T08:09:08.330Z,20.10
2019-04-20T08:11:38.009Z,19.30
2019-04-20T08:16:47.101Z,19.40
2019-04-20T08:19:10.221Z,19.30
2019-04-20T08:21:44.036Z,19.80
2019-04-20T08:24:07.453Z,20.40
2019-04-20T08:26:29.913Z,20.40
2019-04-20T08:29:01.464Z,20.60
2019-04-20T08:31:40.683Z,21.10
2019-04-20T08:34:27.640Z,20.70
2019-04-20T08:36:51.493Z,20.70
2019-04-20T08:39:37.908Z,20.90
2019-04-20T08:41:56.425Z,21.60
2019-04-20T08:44:41.366Z,22.20
2019-04-20T08:47:02.060Z,22.90
2019-04-20T08:49:27.962Z,22.50
2019-04-20T08:52:00.028Z,22.90
2019-04-20T08:54:18.082Z,23.10
2019-04-20T08:56:42.425Z,23.10
2019-04-20T08:59:02.418Z,23.60
2019-04-20T09:01:34.148Z,23.50
2019-04-20T09:04:10.849Z,23.30
2019-04-20T09:06:47.038Z,23.30
2019-04-20T09:09:33.269Z,23.10
2019-04-20T09:11:50.523Z,23.20
2019-04-20T09:14:21.424Z,23.80
2019-04-20T09:16:59.229Z,24.50
2019-04-20T09:19:32.449Z,24.70
2019-04-20T09:22:23.329Z,24.10
2019-04-20T09:24:57.844Z,24.40
2019-04-20T09:27:22.751Z,24.10
2019-04-20T09:29:59.448Z,23.70
2019-04-20T09:32:36.063Z,24.10
2019-04-20T09:35:11.403Z,24.60
2019-04-20T09:37:51.121Z,24.60
2019-04-20T09:40:20.252Z,24.90
2019-04-20T09:45:24.807Z,24.90
2019-04-20T09:47:49.499Z,24.20
2019-04-20T09:50:31.908Z,24.00
2019-04-20T09:55:29.250Z,24.70
2019-04-20T09:58:01.514Z,24.50
2019-04-20T10:00:35.913Z,24.30
2019-04-20T10:02:46.537Z,24.20
2019-04-20T10:07:49.308Z,24.10
2019-04-20T10:12:44.466Z,23.30
2019-04-20T10:15:19.091Z,23.80
2019-04-20T10:20:20.941Z,24.40
2019-04-20T10:22:42.800Z,24.20
2019-04-20T10:25:11.284Z,23.80
2019-04-20T10:30:10.409Z,23.30
2019-04-20T10:32:43.045Z,23.10
2019-04-20T10:35:12.212Z,23.20
2019-04-20T10:42:40.120Z,23.40
2019-04-20T10:45:09.077Z,22.80
2019-04-20T10:47:38.723Z,22.20
2019-04-20T10:50:09.269Z,21.80
2019-04-20T10:52:38.176Z,21.30
2019-04-20T10:55:08.279Z,21.10
2019-04-20T10:57:37.597Z,20.90
2019-04-20T11:02:37.387Z,20.60
2019-04-20T11:07:35.124Z,20.50
2019-04-20T11:10:14.940Z,20.50
2019-04-20T11:12:38.123Z,20.50
2019-04-20T11:17:35.604Z,20.40
2019-04-20T11:20:05.858Z,20.40
2019-04-20T11:22:34.732Z,20.40
2019-04-20T11:25:04.282Z,20.40
2019-04-20T11:27:34.115Z,20.40
2019-04-20T11:30:02.589Z,20.30
2019-04-20T11:32:30.972Z,20.30
2019-04-20T11:37:29.185Z,20.30
2019-04-20T11:39:58.984Z,20.20
2019-04-20T11:42:27.756Z,20.30
2019-04-20T11:44:57.090Z,20.40
2019-04-20T11:47:25.715Z,20.40
2019-04-20T11:49:55.403Z,20.40
2019-04-20T11:52:25.393Z,20.40
2019-04-20T11:54:54.645Z,20.30
2019-04-20T11:57:23.311Z,20.20
2019-04-20T11:59:52.913Z,20.30
2019-04-20T12:02:34.855Z,20.30
2019-04-20T12:05:12.809Z,20.30
2019-04-20T12:07:35.243Z,20.30
2019-04-20T12:10:10.942Z,20.10
2019-04-20T12:12:42.135Z,20.20
2019-04-20T12:20:07.990Z,20.40
2019-04-20T12:22:36.544Z,20.50
2019-04-20T12:25:06.392Z,20.50
2019-04-20T12:30:05.770Z,20.50
2019-04-20T12:32:42.212Z,20.40
2019-04-20T12:35:08.565Z,20.30
2019-04-20T12:42:36.840Z,20.40
2019-04-20T12:45:08.297Z,20.40
2019-04-20T12:47:37.487Z,20.50
2019-04-20T12:50:07.640Z,20.60
2019-04-20T12:52:36.547Z,20.60
2019-04-20T12:55:08.408Z,20.50
2019-04-20T12:57:37.013Z,20.60
2019-04-20T13:02:37.495Z,20.50
2019-04-20T13:05:11.241Z,20.50
2019-04-20T13:10:13.677Z,20.60
2019-04-20T13:12:44.654Z,20.60
2019-04-20T13:18:01.448Z,20.60
2019-04-20T13:20:30.081Z,20.60
2019-04-20T13:23:00.006Z,20.60
2019-04-20T13:25:28.869Z,20.60
2019-04-20T13:27:57.324Z,20.60
2019-04-20T13:32:57.034Z,20.50
2019-04-20T13:35:25.815Z,20.60
2019-04-20T13:40:23.839Z,20.50
2019-04-20T13:42:53.892Z,20.70
2019-04-20T13:45:22.724Z,20.80
2019-04-20T13:47:51.125Z,20.80
2019-04-20T13:50:20.175Z,20.70
2019-04-20T13:52:48.931Z,20.60
2019-04-20T13:57:47.263Z,20.70
2019-04-20T14:00:24.279Z,20.70
2019-04-20T14:05:51.183Z,20.70
2019-04-20T14:10:49.683Z,20.70
2019-04-20T14:15:49.156Z,20.70
2019-04-20T14:20:45.850Z,20.80
2019-04-20T14:25:45.033Z,20.70
2019-04-20T14:28:13.680Z,20.70
2019-04-20T14:30:43.633Z,20.70
2019-04-20T14:33:12.861Z,20.60
2019-04-20T14:35:41.419Z,20.70
2019-04-20T14:40:39.714Z,20.80
2019-04-20T14:43:08.950Z,20.70
2019-04-20T14:45:38.562Z,20.70
2019-04-20T14:48:07.948Z,20.70
2019-04-20T14:50:37.950Z,20.70
2019-04-20T14:55:36.035Z,20.70
2019-04-20T14:58:06.082Z,20.70
2019-04-20T15:00:42.117Z,20.70
2019-04-20T15:03:28.312Z,20.80
2019-04-20T15:06:00.387Z,20.80
2019-04-20T15:08:32.407Z,20.70
2019-04-20T15:11:01.149Z,20.70
2019-04-20T15:13:30.795Z,20.80
2019-04-20T15:15:59.677Z,20.80
2019-04-20T15:18:33.613Z,20.70
2019-04-20T15:21:06.183Z,20.70
2019-04-20T15:26:22.454Z,20.60
2019-04-20T15:33:48.743Z,20.60
2019-04-20T15:38:47.241Z,20.40
2019-04-20T15:46:15.265Z,20.50
2019-04-20T15:48:44.040Z,20.50
2019-04-20T15:51:14.018Z,20.50
2019-04-20T15:53:43.885Z,20.50
2019-04-20T15:56:12.566Z,20.50
2019-04-20T16:04:21.616Z,20.30
2019-04-20T16:06:45.249Z,20.40
2019-04-20T16:09:15.580Z,20.50
2019-04-20T16:11:44.781Z,20.40
2019-04-20T16:14:13.683Z,20.30
2019-04-20T16:16:42.569Z,20.30
2019-04-20T16:19:25.680Z,20.30
2019-04-20T16:21:41.684Z,20.20
2019-04-20T16:24:12.945Z,20.10
2019-04-20T16:26:44.142Z,20.10
2019-04-20T16:29:13.425Z,20.10
2019-04-20T16:31:44.021Z,20.10
2019-04-20T16:41:40.253Z,19.90
2019-04-20T16:44:09.268Z,19.80
2019-04-20T16:46:38.341Z,19.80
2019-04-20T16:51:36.826Z,19.70
2019-04-20T16:54:05.791Z,19.70
2019-04-20T16:56:35.017Z,19.70
2019-04-20T16:59:09.313Z,19.60
2019-04-20T17:01:35.130Z,19.40
2019-04-20T17:04:07.848Z,19.40
2019-04-20T17:06:36.017Z,19.40
2019-04-20T17:09:07.031Z,19.40
2019-04-20T17:11:36.177Z,19.30
2019-04-20T17:14:06.681Z,19.30
2019-04-20T17:16:35.599Z,19.20
2019-04-20T17:19:04.233Z,19.10
2019-04-20T17:21:33.825Z,19.00
2019-04-20T17:24:03.665Z,18.90
2019-04-20T17:26:36.844Z,18.90
2019-04-20T17:31:39.691Z,18.70
2019-04-20T17:34:28.464Z,18.60
2019-04-20T17:36:40.408Z,18.60
2019-04-20T17:39:13.443Z,18.40
2019-04-20T17:41:59.490Z,18.20
2019-04-20T17:44:26.556Z,18.00
2019-04-20T17:46:52.078Z,17.90
2019-04-20T17:49:28.280Z,17.70
2019-04-20T17:52:05.170Z,17.50
2019-04-20T17:54:22.019Z,17.30
2019-04-20T17:56:52.173Z,17.20
2019-04-20T17:59:22.080Z,17.10
2019-04-20T18:02:09.049Z,16.90
2019-04-20T18:04:53.835Z,16.70
2019-04-20T18:07:10.615Z,16.50
2019-04-20T18:09:44.781Z,16.40
2019-04-20T18:12:00.337Z,16.30
2019-04-20T18:14:43.235Z,16.20
2019-04-20T18:17:15.153Z,16.10
2019-04-20T18:19:33.389Z,16.00
2019-04-20T18:22:03.669Z,15.90
2019-04-20T18:24:53.887Z,15.80
2019-04-20T18:27:24.828Z,15.60
2019-04-20T18:29:53.172Z,15.60
2019-04-20T18:32:05.114Z,15.50
2019-04-20T18:34:38.203Z,15.50
2019-04-20T18:37:12.009Z,15.50
2019-04-20T18:39:46.253Z,15.40
2019-04-20T18:42:15.609Z,15.50
2019-04-20T18:44:58.272Z,15.50
2019-04-20T18:47:31.703Z,15.60
2019-04-20T18:49:49.507Z,15.60
2019-04-20T18:52:07.759Z,15.60
2019-04-20T18:54:40.578Z,15.50
2019-04-20T18:57:11.297Z,15.50
2019-04-20T18:59:42.662Z,15.50
2019-04-20T19:02:14.928Z,15.50
2019-04-20T19:04:37.659Z,15.50
2019-04-20T19:07:07.795Z,15.40
2019-04-20T19:09:37.842Z,15.30
2019-04-20T19:12:09.846Z,15.20
2019-04-20T19:14:45.812Z,15.10
2019-04-20T19:17:42.047Z,15.00
2019-04-20T19:20:07.050Z,15.00
2019-04-20T19:25:10.001Z,14.90
2019-04-20T19:27:43.446Z,14.70
2019-04-20T19:30:21.189Z,14.60
2019-04-20T19:32:54.835Z,14.60
2019-04-20T19:35:24.281Z,14.50
2019-04-20T19:37:50.159Z,14.40
2019-04-20T19:42:47.917Z,14.20
2019-04-20T19:45:36.840Z,14.10
2019-04-20T19:50:35.602Z,13.90
2019-04-20T19:53:12.507Z,13.80
2019-04-20T19:57:58.874Z,13.60
2019-04-20T20:00:14.659Z,13.50
2019-04-20T20:02:43.510Z,13.40
2019-04-20T20:05:15.832Z,13.40
2019-04-20T20:07:47.467Z,13.40
2019-04-20T20:10:13.000Z,13.30
2019-04-20T20:12:48.391Z,13.20
2019-04-20T20:15:22.085Z,13.10
2019-04-20T20:17:59.073Z,13.10
2019-04-20T20:20:38.222Z,13.10
2019-04-20T20:22:49.796Z,13.10
2019-04-20T20:25:14.952Z,13.00
2019-04-20T20:27:51.149Z,12.90
2019-04-20T20:30:22.745Z,12.90
2019-04-20T20:37:50.839Z,12.80
2019-04-20T20:40:23.312Z,12.70
2019-04-20T20:45:22.702Z,12.50
2019-04-20T20:48:03.853Z,12.40
2019-04-20T20:50:36.422Z,12.30
2019-04-20T20:57:56.337Z,12.00
2019-04-20T21:00:32.094Z,12.00
2019-04-20T21:02:55.760Z,11.90
2019-04-20T21:07:44.841Z,11.90
2019-04-20T21:10:22.834Z,11.80
2019-04-20T21:15:20.407Z,11.70
2019-04-20T21:18:08.471Z,11.60
2019-04-20T21:20:33.128Z,11.60
2019-04-20T21:23:02.404Z,11.60
2019-04-20T21:25:21.049Z,11.50
2019-04-20T21:27:50.877Z,11.40
2019-04-20T21:30:28.206Z,11.40
2019-04-20T21:32:52.569Z,11.40
2019-04-20T21:35:21.731Z,11.30
2019-04-20T21:40:27.868Z,11.30
2019-04-20T21:42:57.223Z,11.40
2019-04-20T21:45:25.601Z,11.30
2019-04-20T21:47:50.673Z,11.30
2019-04-20T21:50:35.041Z,11.30
2019-04-20T21:52:53.420Z,11.20
2019-04-20T21:55:19.584Z,11.10
2019-04-20T21:57:51.644Z,11.00
2019-04-20T22:00:42.480Z,10.90
2019-04-20T22:03:11.031Z,10.90
2019-04-20T22:05:40.188Z,10.90
2019-04-20T22:08:12.350Z,10.80
2019-04-20T22:10:38.821Z,10.80
2019-04-20T22:13:07.807Z,10.70
2019-04-20T22:15:45.405Z,10.60
2019-04-20T22:18:10.961Z,10.40
2019-04-20T22:20:49.660Z,10.30
2019-04-20T22:23:23.266Z,10.30
2019-04-20T22:25:53.289Z,10.30
2019-04-20T22:28:08.723Z,10.40
2019-04-20T22:30:37.918Z,10.10
2019-04-20T22:35:44.244Z,10.20
2019-04-20T22:38:14.263Z,10.00
2019-04-20T22:40:42.516Z,9.90
2019-04-20T22:43:12.474Z,9.70
2019-04-20T22:45:45.713Z,9.50
2019-04-20T22:48:14.536Z,9.50
2019-04-20T22:51:01.641Z,9.50
2019-04-20T22:53:28.090Z,9.60
2019-04-20T22:56:01.419Z,9.50
2019-04-20T23:00:51.457Z,9.30
2019-04-20T23:05:41.047Z,9.10
2019-04-20T23:08:10.554Z,8.90
2019-04-20T23:10:43.119Z,8.80
2019-04-20T23:13:09.566Z,8.80
2019-04-20T23:18:08.335Z,8.50
2019-04-20T23:20:39.425Z,8.50
2019-04-20T23:23:10.403Z,8.40
2019-04-20T23:25:37.011Z,8.40
2019-04-20T23:28:10.026Z,8.30
2019-04-20T23:30:40.288Z,8.40
2019-04-20T23:33:05.639Z,8.30
2019-04-20T23:35:37.645Z,8.40
2019-04-20T23:38:11.110Z,8.40
2019-04-20T23:40:34.328Z,8.40
2019-04-20T23:45:47.342Z,8.20
2019-04-20T23:48:22.718Z,8.10
2019-04-20T23:51:05.066Z,8.00
2019-04-20T23:53:32.516Z,8.00
2019-04-20T23:55:49.890Z,7.90
2019-04-20T23:58:19.454Z,7.90
